sensor_id;sensor_type;location;lat;lon;timestamp;pressure;altitude;pressure_sealevel;temperature;humidity
49030;BME280;43337;52.070;4.508;2022-11-20T00:01:59;101572.78;;;-2.16;87.70
49030;BME280;43337;52.070;4.508;2022-11-20T00:04:24;101564.06;;;-2.23;87.00
49030;BME280;43337;52.070;4.508;2022-11-20T00:06:50;101564.91;;;-2.24;87.26
49030;BME280;43337;52.070;4.508;2022-11-20T00:09:15;101575.38;;;-2.16;87.23
49030;BME280;43337;52.070;4.508;2022-11-20T00:11:40;101562.16;;;-2.31;87.64
49030;BME280;43337;52.070;4.508;2022-11-20T00:14:06;101582.94;;;-2.25;87.09
49030;BME280;43337;52.070;4.508;2022-11-20T00:16:32;101587.28;;;-2.23;87.24
49030;BME280;43337;52.070;4.508;2022-11-20T00:18:58;101575.19;;;-2.25;87.78
49030;BME280;43337;52.070;4.508;2022-11-20T00:21:26;101576.84;;;-2.29;87.60
49030;BME280;43337;52.070;4.508;2022-11-20T00:23:53;101588.09;;;-2.25;87.63
49030;BME280;43337;52.070;4.508;2022-11-20T00:26:21;101574.31;;;-2.26;87.41
49030;BME280;43337;52.070;4.508;2022-11-20T00:28:55;101558.78;;;-2.29;87.53
49030;BME280;43337;52.070;4.508;2022-11-20T00:31:21;101563.91;;;-2.30;87.82
49030;BME280;43337;52.070;4.508;2022-11-20T00:33:47;101566.59;;;-2.26;87.50
49030;BME280;43337;52.070;4.508;2022-11-20T00:36:17;101536.94;;;-2.44;87.60
49030;BME280;43337;52.070;4.508;2022-11-20T00:38:43;101556.13;;;-2.32;87.67
49030;BME280;43337;52.070;4.508;2022-11-20T00:41:11;101570.81;;;-2.28;87.81
49030;BME280;43337;52.070;4.508;2022-11-20T00:43:37;101539.53;;;-2.44;87.33
49030;BME280;43337;52.070;4.508;2022-11-20T00:46:08;101559.47;;;-2.37;87.46
49030;BME280;43337;52.070;4.508;2022-11-20T00:48:34;101557.75;;;-2.35;87.75
49030;BME280;43337;52.070;4.508;2022-11-20T00:50:59;101555.97;;;-2.39;87.68
49030;BME280;43337;52.070;4.508;2022-11-20T00:53:25;101555.97;;;-2.39;87.60
49030;BME280;43337;52.070;4.508;2022-11-20T00:55:58;101553.34;;;-2.41;87.70
49030;BME280;43337;52.070;4.508;2022-11-20T00:58:28;101554.91;;;-2.49;87.59
49030;BME280;43337;52.070;4.508;2022-11-20T01:01:00;101560.00;;;-2.51;88.21
49030;BME280;43337;52.070;4.508;2022-11-20T01:03:25;101540.97;;;-2.57;87.40
49030;BME280;43337;52.070;4.508;2022-11-20T01:05:51;101553.13;;;-2.52;88.36
49030;BME280;43337;52.070;4.508;2022-11-20T01:08:16;101554.78;;;-2.54;87.79
49030;BME280;43337;52.070;4.508;2022-11-20T01:10:42;101548.72;;;-2.56;87.88
49030;BME280;43337;52.070;4.508;2022-11-20T01:13:08;101551.22;;;-2.59;87.98
49030;BME280;43337;52.070;4.508;2022-11-20T01:15:51;101553.81;;;-2.59;87.98
49030;BME280;43337;52.070;4.508;2022-11-20T01:18:17;101569.31;;;-2.57;88.00
49030;BME280;43337;52.070;4.508;2022-11-20T01:20:42;101532.91;;;-2.71;88.28
49030;BME280;43337;52.070;4.508;2022-11-20T01:23:07;101562.38;;;-2.61;88.29
49030;BME280;43337;52.070;4.508;2022-11-20T01:25:34;101525.09;;;-2.76;87.85
49030;BME280;43337;52.070;4.508;2022-11-20T01:27:59;101546.81;;;-2.64;88.18
49030;BME280;43337;52.070;4.508;2022-11-20T01:30:24;101549.41;;;-2.64;88.17
49030;BME280;43337;52.070;4.508;2022-11-20T01:32:50;101539.03;;;-2.66;87.99
49030;BME280;43337;52.070;4.508;2022-11-20T01:35:15;101539.00;;;-2.67;88.51
49030;BME280;43337;52.070;4.508;2022-11-20T01:37:40;101529.25;;;-2.81;87.54
49030;BME280;43337;52.070;4.508;2022-11-20T01:40:06;101532.66;;;-2.82;88.07
49030;BME280;43337;52.070;4.508;2022-11-20T01:42:31;101540.56;;;-2.76;88.35
49030;BME280;43337;52.070;4.508;2022-11-20T01:45:56;101546.66;;;-2.72;88.47
49030;BME280;43337;52.070;4.508;2022-11-20T01:48:26;101541.41;;;-2.75;88.34
49030;BME280;43337;52.070;4.508;2022-11-20T01:50:53;101553.44;;;-2.76;88.45
49030;BME280;43337;52.070;4.508;2022-11-20T01:53:21;101531.03;;;-2.78;88.10
49030;BME280;43337;52.070;4.508;2022-11-20T01:55:52;101511.78;;;-2.94;87.96
49030;BME280;43337;52.070;4.508;2022-11-20T01:58:28;101537.91;;;-2.79;87.92
49030;BME280;43337;52.070;4.508;2022-11-20T02:00:55;101524.00;;;-2.85;88.41
49030;BME280;43337;52.070;4.508;2022-11-20T02:03:21;101536.25;;;-2.77;88.24
49030;BME280;43337;52.070;4.508;2022-11-20T02:06:13;101530.06;;;-2.83;88.32
49030;BME280;43337;52.070;4.508;2022-11-20T02:08:40;101555.06;;;-2.79;88.35
49030;BME280;43337;52.070;4.508;2022-11-20T02:11:05;101548.03;;;-2.85;88.26
49030;BME280;43337;52.070;4.508;2022-11-20T02:13:31;101555.00;;;-2.81;88.42
49030;BME280;43337;52.070;4.508;2022-11-20T02:16:19;101547.94;;;-2.89;88.33
49030;BME280;43337;52.070;4.508;2022-11-20T02:18:47;101555.78;;;-2.85;88.95
49030;BME280;43337;52.070;4.508;2022-11-20T02:21:35;101547.19;;;-2.85;88.27
49030;BME280;43337;52.070;4.508;2022-11-20T02:24:15;101553.28;;;-2.82;88.56
49030;BME280;43337;52.070;4.508;2022-11-20T02:26:52;101537.72;;;-2.86;88.58
49030;BME280;43337;52.070;4.508;2022-11-20T02:32:27;101543.78;;;-2.84;88.35
49030;BME280;43337;52.070;4.508;2022-11-20T02:34:53;101537.63;;;-2.91;88.63
49030;BME280;43337;52.070;4.508;2022-11-20T02:37:19;101528.88;;;-2.96;88.52
49030;BME280;43337;52.070;4.508;2022-11-20T02:39:46;101540.19;;;-2.91;88.39
49030;BME280;43337;52.070;4.508;2022-11-20T02:42:12;101527.25;;;-2.92;88.17
49030;BME280;43337;52.070;4.508;2022-11-20T02:44:38;101530.66;;;-2.95;88.40
49030;BME280;43337;52.070;4.508;2022-11-20T02:47:03;101517.63;;;-3.01;88.49
49030;BME280;43337;52.070;4.508;2022-11-20T02:49:29;101521.91;;;-3.00;88.51
49030;BME280;43337;52.070;4.508;2022-11-20T02:51:54;101516.75;;;-3.00;88.34
49030;BME280;43337;52.070;4.508;2022-11-20T02:54:19;101505.41;;;-3.10;88.43
49030;BME280;43337;52.070;4.508;2022-11-20T02:56:45;101516.72;;;-3.03;88.73
49030;BME280;43337;52.070;4.508;2022-11-20T02:59:10;101508.09;;;-3.04;88.73
49030;BME280;43337;52.070;4.508;2022-11-20T03:01:35;101501.22;;;-3.05;88.64
49030;BME280;43337;52.070;4.508;2022-11-20T03:04:01;101482.97;;;-3.14;88.49
49030;BME280;43337;52.070;4.508;2022-11-20T03:06:26;101498.63;;;-3.05;88.58
49030;BME280;43337;52.070;4.508;2022-11-20T03:08:51;101498.63;;;-3.06;88.71
49030;BME280;43337;52.070;4.508;2022-11-20T03:11:17;101490.03;;;-3.07;88.79
49030;BME280;43337;52.070;4.508;2022-11-20T03:13:42;101491.72;;;-3.07;88.70
49030;BME280;43337;52.070;4.508;2022-11-20T03:16:13;101485.69;;;-3.08;88.69
49030;BME280;43337;52.070;4.508;2022-11-20T03:18:39;101471.84;;;-3.11;89.15
49030;BME280;43337;52.070;4.508;2022-11-20T03:21:05;101459.72;;;-3.17;89.13
49030;BME280;43337;52.070;4.508;2022-11-20T03:23:31;101463.06;;;-3.21;88.74
49030;BME280;43337;52.070;4.508;2022-11-20T03:26:08;101479.63;;;-3.10;88.47
49030;BME280;43337;52.070;4.508;2022-11-20T03:28:33;101490.78;;;-3.11;89.00
49030;BME280;43337;52.070;4.508;2022-11-20T03:31:05;101475.25;;;-3.14;88.88
49030;BME280;43337;52.070;4.508;2022-11-20T03:33:30;101473.44;;;-3.18;88.84
49030;BME280;43337;52.070;4.508;2022-11-20T03:36:01;101445.81;;;-3.24;89.01
49030;BME280;43337;52.070;4.508;2022-11-20T03:38:29;101457.16;;;-3.17;89.07
49030;BME280;43337;52.070;4.508;2022-11-20T03:40:59;101464.00;;;-3.17;88.85
49030;BME280;43337;52.070;4.508;2022-11-20T03:43:24;101441.44;;;-3.28;88.85
49030;BME280;43337;52.070;4.508;2022-11-20T03:45:50;101454.41;;;-3.23;88.93
49030;BME280;43337;52.070;4.508;2022-11-20T03:48:15;101452.75;;;-3.23;88.86
49030;BME280;43337;52.070;4.508;2022-11-20T03:50:40;101445.81;;;-3.24;88.93
49030;BME280;43337;52.070;4.508;2022-11-20T03:53:05;101445.81;;;-3.24;88.90
49030;BME280;43337;52.070;4.508;2022-11-20T03:55:31;101462.09;;;-3.26;88.88
49030;BME280;43337;52.070;4.508;2022-11-20T03:57:56;101465.47;;;-3.27;89.09
49030;BME280;43337;52.070;4.508;2022-11-20T04:00:21;101452.56;;;-3.30;89.00
49030;BME280;43337;52.070;4.508;2022-11-20T04:02:47;101424.75;;;-3.45;88.90
49030;BME280;43337;52.070;4.508;2022-11-20T04:05:12;101453.41;;;-3.30;88.96
49030;BME280;43337;52.070;4.508;2022-11-20T04:07:37;101416.44;;;-3.33;89.18
49030;BME280;43337;52.070;4.508;2022-11-20T04:10:03;101413.81;;;-3.35;89.32
49030;BME280;43337;52.070;4.508;2022-11-20T04:12:31;101415.66;;;-3.29;89.34
49030;BME280;43337;52.070;4.508;2022-11-20T04:14:57;101409.56;;;-3.34;89.28
49030;BME280;43337;52.070;4.508;2022-11-20T04:17:22;101419.13;;;-3.27;89.38
49030;BME280;43337;52.070;4.508;2022-11-20T04:19:47;101409.72;;;-3.27;88.95
49030;BME280;43337;52.070;4.508;2022-11-20T04:22:13;101400.31;;;-3.26;89.31
49030;BME280;43337;52.070;4.508;2022-11-20T04:24:38;101384.59;;;-3.37;89.38
49030;BME280;43337;52.070;4.508;2022-11-20T04:27:03;101407.16;;;-3.27;89.44
49030;BME280;43337;52.070;4.508;2022-11-20T04:29:29;101404.59;;;-3.27;89.56
49030;BME280;43337;52.070;4.508;2022-11-20T04:31:54;101401.88;;;-3.31;89.46
49030;BME280;43337;52.070;4.508;2022-11-20T04:34:19;101394.06;;;-3.36;89.43
49030;BME280;43337;52.070;4.508;2022-11-20T04:36:45;101373.09;;;-3.53;89.75
49030;BME280;43337;52.070;4.508;2022-11-20T04:39:12;101416.56;;;-3.27;89.50
49030;BME280;43337;52.070;4.508;2022-11-20T04:41:39;101356.63;;;-3.59;89.78
49030;BME280;43337;52.070;4.508;2022-11-20T04:44:05;101423.41;;;-3.29;89.58
49030;BME280;43337;52.070;4.508;2022-11-20T04:46:33;101396.53;;;-3.40;89.53
49030;BME280;43337;52.070;4.508;2022-11-20T04:48:59;101416.53;;;-3.29;89.69
49030;BME280;43337;52.070;4.508;2022-11-20T04:51:24;101412.22;;;-3.30;89.61
49030;BME280;43337;52.070;4.508;2022-11-20T04:53:50;101394.81;;;-3.41;89.74
49030;BME280;43337;52.070;4.508;2022-11-20T04:56:16;101391.34;;;-3.42;89.71
49030;BME280;43337;52.070;4.508;2022-11-20T04:58:41;101396.63;;;-3.36;89.90
49030;BME280;43337;52.070;4.508;2022-11-20T05:01:12;101363.41;;;-3.61;89.91
49030;BME280;43337;52.070;4.508;2022-11-20T05:03:39;101404.44;;;-3.33;90.18
49030;BME280;43337;52.070;4.508;2022-11-20T05:06:05;101397.56;;;-3.34;89.94
49030;BME280;43337;52.070;4.508;2022-11-20T05:08:32;101415.56;;;-3.34;90.11
49030;BME280;43337;52.070;4.508;2022-11-20T05:11:09;101421.53;;;-3.35;90.24
49030;BME280;43337;52.070;4.508;2022-11-20T05:13:35;101415.50;;;-3.37;90.03
49030;BME280;43337;52.070;4.508;2022-11-20T05:16:09;101407.66;;;-3.41;90.14
49030;BME280;43337;52.070;4.508;2022-11-20T05:18:36;101406.81;;;-3.42;90.34
49030;BME280;43337;52.070;4.508;2022-11-20T05:21:02;101399.78;;;-3.48;90.64
49030;BME280;43337;52.070;4.508;2022-11-20T05:23:30;101422.28;;;-3.39;90.27
49030;BME280;43337;52.070;4.508;2022-11-20T05:25:57;101421.31;;;-3.46;90.28
49030;BME280;43337;52.070;4.508;2022-11-20T05:28:23;101419.69;;;-3.40;90.50
49030;BME280;43337;52.070;4.508;2022-11-20T05:30:49;101418.00;;;-3.38;90.60
49030;BME280;43337;52.070;4.508;2022-11-20T05:33:14;101407.69;;;-3.40;90.42
49030;BME280;43337;52.070;4.508;2022-11-20T05:35:40;101398.94;;;-3.47;90.15
49030;BME280;43337;52.070;4.508;2022-11-20T05:38:05;101388.47;;;-3.54;90.45
49030;BME280;43337;52.070;4.508;2022-11-20T05:40:30;101402.56;;;-3.38;90.55
49030;BME280;43337;52.070;4.508;2022-11-20T05:42:56;101377.50;;;-3.47;90.51
49030;BME280;43337;52.070;4.508;2022-11-20T05:45:21;101386.25;;;-3.39;90.72
49030;BME280;43337;52.070;4.508;2022-11-20T05:47:46;101388.91;;;-3.36;90.51
49030;BME280;43337;52.070;4.508;2022-11-20T05:50:12;101364.69;;;-3.44;90.41
49030;BME280;43337;52.070;4.508;2022-11-20T05:52:38;101378.44;;;-3.44;90.27
49030;BME280;43337;52.070;4.508;2022-11-20T05:55:03;101393.22;;;-3.35;90.30
49030;BME280;43337;52.070;4.508;2022-11-20T05:57:30;101376.81;;;-3.40;90.77
49030;BME280;43337;52.070;4.508;2022-11-20T05:59:55;101372.53;;;-3.39;90.54
49030;BME280;43337;52.070;4.508;2022-11-20T06:02:21;101362.97;;;-3.45;90.73
49030;BME280;43337;52.070;4.508;2022-11-20T06:04:46;101369.19;;;-3.35;90.75
49030;BME280;43337;52.070;4.508;2022-11-20T06:07:12;101360.41;;;-3.45;90.69
49030;BME280;43337;52.070;4.508;2022-11-20T06:09:37;101358.81;;;-3.38;91.05
49030;BME280;43337;52.070;4.508;2022-11-20T06:12:03;101356.22;;;-3.40;91.34
49030;BME280;43337;52.070;4.508;2022-11-20T06:14:28;101336.22;;;-3.50;90.95
49030;BME280;43337;52.070;4.508;2022-11-20T06:16:53;101355.41;;;-3.37;90.93
49030;BME280;43337;52.070;4.508;2022-11-20T06:19:19;101341.59;;;-3.41;91.18
49030;BME280;43337;52.070;4.508;2022-11-20T06:21:44;101345.16;;;-3.36;91.40
49030;BME280;43337;52.070;4.508;2022-11-20T06:24:10;101358.88;;;-3.35;91.41
49030;BME280;43337;52.070;4.508;2022-11-20T06:26:35;101350.28;;;-3.36;91.31
49030;BME280;43337;52.070;4.508;2022-11-20T06:29:01;101345.16;;;-3.36;91.71
49030;BME280;43337;52.070;4.508;2022-11-20T06:31:26;101352.97;;;-3.31;91.71
49030;BME280;43337;52.070;4.508;2022-11-20T06:33:52;101326.88;;;-3.47;91.44
49030;BME280;43337;52.070;4.508;2022-11-20T06:36:19;101345.19;;;-3.34;91.57
49030;BME280;43337;52.070;4.508;2022-11-20T06:38:45;101349.63;;;-3.27;91.28
49030;BME280;43337;52.070;4.508;2022-11-20T06:41:13;101354.84;;;-3.24;91.53
49030;BME280;43337;52.070;4.508;2022-11-20T06:43:39;101338.56;;;-3.23;91.74
49030;BME280;43337;52.070;4.508;2022-11-20T06:46:05;101344.63;;;-3.21;91.52
49030;BME280;43337;52.070;4.508;2022-11-20T06:48:30;101331.59;;;-3.27;91.82
49030;BME280;43337;52.070;4.508;2022-11-20T06:50:56;101325.69;;;-3.23;91.74
49030;BME280;43337;52.070;4.508;2022-11-20T06:53:23;101331.84;;;-3.16;92.04
49030;BME280;43337;52.070;4.508;2022-11-20T06:55:49;101325.81;;;-3.18;92.11
49030;BME280;43337;52.070;4.508;2022-11-20T06:58:16;101326.78;;;-3.12;92.11
49030;BME280;43337;52.070;4.508;2022-11-20T07:00:42;101336.44;;;-3.03;92.02
49030;BME280;43337;52.070;4.508;2022-11-20T07:03:09;101322.69;;;-3.02;91.70
49030;BME280;43337;52.070;4.508;2022-11-20T07:05:35;101322.78;;;-2.98;92.33
49030;BME280;43337;52.070;4.508;2022-11-20T07:08:01;101321.84;;;-3.01;92.41
49030;BME280;43337;52.070;4.508;2022-11-20T07:10:26;101330.53;;;-2.96;92.57
49030;BME280;43337;52.070;4.508;2022-11-20T07:12:53;101337.63;;;-2.86;92.50
49030;BME280;43337;52.070;4.508;2022-11-20T07:15:20;101338.56;;;-2.82;92.65
49030;BME280;43337;52.070;4.508;2022-11-20T07:17:45;101299.63;;;-2.98;92.61
49030;BME280;43337;52.070;4.508;2022-11-20T07:20:12;101341.22;;;-2.78;92.77
49030;BME280;43337;52.070;4.508;2022-11-20T07:22:37;101313.56;;;-2.88;92.97
49030;BME280;43337;52.070;4.508;2022-11-20T07:25:03;101326.63;;;-2.77;93.06
49030;BME280;43337;52.070;4.508;2022-11-20T07:27:29;101334.56;;;-2.68;93.15
49030;BME280;43337;52.070;4.508;2022-11-20T07:29:55;101324.19;;;-2.70;93.14
49030;BME280;43337;52.070;4.508;2022-11-20T07:32:20;101326.03;;;-2.64;93.53
49030;BME280;43337;52.070;4.508;2022-11-20T07:34:46;101332.22;;;-2.54;93.07
49030;BME280;43337;52.070;4.508;2022-11-20T07:37:12;101310.66;;;-2.59;93.98
49030;BME280;43337;52.070;4.508;2022-11-20T07:39:37;101328.03;;;-2.49;93.70
49030;BME280;43337;52.070;4.508;2022-11-20T07:42:02;101330.63;;;-2.49;93.63
49030;BME280;43337;52.070;4.508;2022-11-20T07:44:28;101311.53;;;-2.59;93.57
49030;BME280;43337;52.070;4.508;2022-11-20T07:46:53;101322.91;;;-2.48;94.02
49030;BME280;43337;52.070;4.508;2022-11-20T07:49:18;101326.44;;;-2.42;94.08
49030;BME280;43337;52.070;4.508;2022-11-20T07:51:44;101333.44;;;-2.35;94.06
49030;BME280;43337;52.070;4.508;2022-11-20T07:54:09;101338.66;;;-2.32;94.25
49030;BME280;43337;52.070;4.508;2022-11-20T07:56:34;101323.16;;;-2.34;94.51
49030;BME280;43337;52.070;4.508;2022-11-20T07:59:00;101339.66;;;-2.24;93.96
49030;BME280;43337;52.070;4.508;2022-11-20T08:01:25;101348.38;;;-2.19;94.35
49030;BME280;43337;52.070;4.508;2022-11-20T08:03:50;101327.63;;;-2.24;94.55
49030;BME280;43337;52.070;4.508;2022-11-20T08:06:16;101347.66;;;-2.10;95.01
49030;BME280;43337;52.070;4.508;2022-11-20T08:08:42;101343.34;;;-2.10;94.13
49030;BME280;43337;52.070;4.508;2022-11-20T08:11:08;101330.47;;;-2.10;94.07
49030;BME280;43337;52.070;4.508;2022-11-20T08:13:51;101324.50;;;-2.06;94.52
49030;BME280;43337;52.070;4.508;2022-11-20T08:16:36;101330.66;;;-1.98;94.34
49030;BME280;43337;52.070;4.508;2022-11-20T08:19:01;101309.09;;;-2.03;94.42
49030;BME280;43337;52.070;4.508;2022-11-20T08:21:26;101309.16;;;-2.00;94.84
49030;BME280;43337;52.070;4.508;2022-11-20T08:23:52;101320.47;;;-1.90;94.57
49030;BME280;43337;52.070;4.508;2022-11-20T08:26:17;101310.22;;;-1.85;94.92
49030;BME280;43337;52.070;4.508;2022-11-20T08:28:42;101318.00;;;-1.82;94.69
49030;BME280;43337;52.070;4.508;2022-11-20T08:31:09;101305.91;;;-1.86;94.61
49030;BME280;43337;52.070;4.508;2022-11-20T08:33:35;101318.06;;;-1.78;95.66
49030;BME280;43337;52.070;4.508;2022-11-20T08:36:02;101311.13;;;-1.83;94.67
49030;BME280;43337;52.070;4.508;2022-11-20T08:38:28;101307.81;;;-1.73;95.08
49030;BME280;43337;52.070;4.508;2022-11-20T08:40:58;101308.72;;;-1.71;94.70
49030;BME280;43337;52.070;4.508;2022-11-20T08:43:42;101308.78;;;-1.66;94.60
49030;BME280;43337;52.070;4.508;2022-11-20T08:46:07;101318.34;;;-1.61;95.17
49030;BME280;43337;52.070;4.508;2022-11-20T08:48:32;101315.78;;;-1.58;94.78
49030;BME280;43337;52.070;4.508;2022-11-20T08:50:58;101289.00;;;-1.67;95.22
49030;BME280;43337;52.070;4.508;2022-11-20T08:53:24;101307.28;;;-1.52;95.25
49030;BME280;43337;52.070;4.508;2022-11-20T08:55:50;101307.38;;;-1.46;95.31
49030;BME280;43337;52.070;4.508;2022-11-20T08:58:15;101304.00;;;-1.42;95.08
49030;BME280;43337;52.070;4.508;2022-11-20T09:00:40;101284.97;;;-1.49;94.88
49030;BME280;43337;52.070;4.508;2022-11-20T09:03:06;101297.06;;;-1.43;95.29
49030;BME280;43337;52.070;4.508;2022-11-20T09:05:31;101303.19;;;-1.36;95.01
49030;BME280;43337;52.070;4.508;2022-11-20T09:07:57;101302.44;;;-1.29;94.60
49030;BME280;43337;52.070;4.508;2022-11-20T09:10:23;101305.97;;;-1.23;95.04
49030;BME280;43337;52.070;4.508;2022-11-20T09:12:49;101304.31;;;-1.17;95.21
49030;BME280;43337;52.070;4.508;2022-11-20T09:15:14;101278.38;;;-1.24;95.50
49030;BME280;43337;52.070;4.508;2022-11-20T09:17:40;101288.97;;;-1.07;95.22
49030;BME280;43337;52.070;4.508;2022-11-20T09:20:05;101282.03;;;-1.09;95.23
49030;BME280;43337;52.070;4.508;2022-11-20T09:22:31;101274.38;;;-1.02;95.37
49030;BME280;43337;52.070;4.508;2022-11-20T09:24:56;101280.44;;;-0.96;95.32
49030;BME280;43337;52.070;4.508;2022-11-20T09:27:21;101263.22;;;-0.99;95.09
49030;BME280;43337;52.070;4.508;2022-11-20T09:29:47;101276.25;;;-0.88;94.86
49030;BME280;43337;52.070;4.508;2022-11-20T09:32:12;101268.56;;;-0.84;95.06
49030;BME280;43337;52.070;4.508;2022-11-20T09:34:37;101257.31;;;-0.86;95.04
49030;BME280;43337;52.070;4.508;2022-11-20T09:37:03;101257.41;;;-0.78;95.58
49030;BME280;43337;52.070;4.508;2022-11-20T09:39:28;101234.94;;;-0.82;94.91
49030;BME280;43337;52.070;4.508;2022-11-20T09:45:02;101241.19;;;-0.62;95.19
49030;BME280;43337;52.070;4.508;2022-11-20T09:48:04;101246.41;;;-0.56;95.54
49030;BME280;43337;52.070;4.508;2022-11-20T09:53:11;101227.56;;;-0.45;95.40
49030;BME280;43337;52.070;4.508;2022-11-20T09:55:37;101226.72;;;-0.40;95.72
49030;BME280;43337;52.070;4.508;2022-11-20T09:58:07;101226.75;;;-0.37;95.49
49030;BME280;43337;52.070;4.508;2022-11-20T10:00:36;101216.44;;;-0.32;95.54
49030;BME280;43337;52.070;4.508;2022-11-20T10:03:11;101219.06;;;-0.29;95.57
49030;BME280;43337;52.070;4.508;2022-11-20T10:13:31;101183.81;;;-0.15;95.48
49030;BME280;43337;52.070;4.508;2022-11-20T10:16:23;101174.31;;;-0.16;95.73
49030;BME280;43337;52.070;4.508;2022-11-20T10:19:28;101175.22;;;-0.09;95.77
49030;BME280;43337;52.070;4.508;2022-11-20T10:25:18;101159.75;;;-0.03;96.09
49030;BME280;43337;52.070;4.508;2022-11-20T10:30:28;101156.31;;;0.01;95.82
49030;BME280;43337;52.070;4.508;2022-11-20T10:33:03;101145.09;;;0.01;96.13
49030;BME280;43337;52.070;4.508;2022-11-20T10:35:36;101130.41;;;-0.02;95.85
49030;BME280;43337;52.070;4.508;2022-11-20T10:38:11;101124.41;;;0.05;96.05
49030;BME280;43337;52.070;4.508;2022-11-20T10:40:41;101123.59;;;0.12;95.61
49030;BME280;43337;52.070;4.508;2022-11-20T10:43:13;101117.56;;;0.16;96.19
49030;BME280;43337;52.070;4.508;2022-11-20T10:45:57;101117.56;;;0.22;96.60
49030;BME280;43337;52.070;4.508;2022-11-20T10:48:27;101118.47;;;0.26;96.50
49030;BME280;43337;52.070;4.508;2022-11-20T10:51:23;101105.53;;;0.31;96.30
49030;BME280;43337;52.070;4.508;2022-11-20T10:54:22;101113.34;;;0.35;95.97
49030;BME280;43337;52.070;4.508;2022-11-20T10:56:53;101101.25;;;0.37;96.29
49030;BME280;43337;52.070;4.508;2022-11-20T10:59:41;101101.25;;;0.40;95.74
49030;BME280;43337;52.070;4.508;2022-11-20T11:02:19;101090.91;;;0.43;95.95
49030;BME280;43337;52.070;4.508;2022-11-20T11:04:53;101089.19;;;0.45;96.13
49030;BME280;43337;52.070;4.508;2022-11-20T11:07:30;101080.56;;;0.43;96.18
49030;BME280;43337;52.070;4.508;2022-11-20T11:10:00;101079.72;;;0.52;96.62
49030;BME280;43337;52.070;4.508;2022-11-20T11:12:27;101070.22;;;0.54;97.10
49030;BME280;43337;52.070;4.508;2022-11-20T11:14:55;101065.91;;;0.56;96.72
49030;BME280;43337;52.070;4.508;2022-11-20T11:17:28;101055.53;;;0.59;96.70
49030;BME280;43337;52.070;4.508;2022-11-20T11:20:04;101038.25;;;0.57;96.75
49030;BME280;43337;52.070;4.508;2022-11-20T11:22:33;101043.47;;;0.67;97.73
49030;BME280;43337;52.070;4.508;2022-11-20T11:25:00;101039.16;;;0.69;97.40
49030;BME280;43337;52.070;4.508;2022-11-20T11:27:25;101004.59;;;0.57;97.13
49030;BME280;43337;52.070;4.508;2022-11-20T11:30:03;101027.06;;;0.75;97.45
49030;BME280;43337;52.070;4.508;2022-11-20T11:32:36;101024.47;;;0.79;97.83
49030;BME280;43337;52.070;4.508;2022-11-20T11:35:04;101012.38;;;0.83;97.29
49030;BME280;43337;52.070;4.508;2022-11-20T11:37:35;101000.31;;;0.82;97.04
49030;BME280;43337;52.070;4.508;2022-11-20T11:40:03;100996.81;;;0.87;96.87
49030;BME280;43337;52.070;4.508;2022-11-20T11:42:29;100985.59;;;0.91;96.93
49030;BME280;43337;52.070;4.508;2022-11-20T11:44:57;100977.81;;;0.99;96.70
49030;BME280;43337;52.070;4.508;2022-11-20T11:50:27;100950.16;;;1.00;98.04
49030;BME280;43337;52.070;4.508;2022-11-20T11:53:02;100938.09;;;1.00;97.98
49030;BME280;43337;52.070;4.508;2022-11-20T11:55:48;100938.06;;;1.02;97.60
49030;BME280;43337;52.070;4.508;2022-11-20T12:01:00;100938.06;;;1.05;97.48
49030;BME280;43337;52.070;4.508;2022-11-20T12:03:34;100944.09;;;1.11;97.66
49030;BME280;43337;52.070;4.508;2022-11-20T12:06:05;100935.47;;;1.09;97.42
49030;BME280;43337;52.070;4.508;2022-11-20T12:08:44;100938.91;;;1.17;97.53
49030;BME280;43337;52.070;4.508;2022-11-20T12:11:31;100940.63;;;1.18;98.00
49030;BME280;43337;52.070;4.508;2022-11-20T12:16:40;100932.84;;;1.23;97.82
49030;BME280;43337;52.070;4.508;2022-11-20T12:19:13;100919.88;;;1.20;97.72
49030;BME280;43337;52.070;4.508;2022-11-20T12:27:22;100921.59;;;1.29;97.30
49030;BME280;43337;52.070;4.508;2022-11-20T12:30:06;100921.56;;;1.30;97.46
49030;BME280;43337;52.070;4.508;2022-11-20T12:35:50;100912.94;;;1.31;97.41
49030;BME280;43337;52.070;4.508;2022-11-20T12:41:13;100893.06;;;1.32;97.54
49030;BME280;43337;52.070;4.508;2022-11-20T12:47:28;100901.72;;;1.31;97.32
49030;BME280;43337;52.070;4.508;2022-11-20T12:52:47;100880.91;;;1.34;97.56
49030;BME280;43337;52.070;4.508;2022-11-20T12:55:25;100863.63;;;1.33;97.51
49030;BME280;43337;52.070;4.508;2022-11-20T13:00:29;100842.03;;;1.35;98.05
49030;BME280;43337;52.070;4.508;2022-11-20T13:06:01;100839.41;;;1.43;98.54
49030;BME280;43337;52.070;4.508;2022-11-20T13:08:40;100821.22;;;1.38;99.81
49030;BME280;43337;52.070;4.508;2022-11-20T13:11:16;100835.06;;;1.46;99.16
49030;BME280;43337;52.070;4.508;2022-11-20T13:19:25;100811.72;;;1.43;98.65
49030;BME280;43337;52.070;4.508;2022-11-20T13:21:51;100822.88;;;1.58;98.66
49030;BME280;43337;52.070;4.508;2022-11-20T13:24:23;100816.81;;;1.57;98.40
49030;BME280;43337;52.070;4.508;2022-11-20T13:29:34;100790.91;;;1.51;98.59
49030;BME280;43337;52.070;4.508;2022-11-20T13:32:26;100813.34;;;1.63;99.69
49030;BME280;43337;52.070;4.508;2022-11-20T13:34:58;100804.72;;;1.59;99.32
49030;BME280;43337;52.070;4.508;2022-11-20T13:39:52;100808.09;;;1.67;99.55
49030;BME280;43337;52.070;4.508;2022-11-20T13:42:27;100792.53;;;1.67;98.97
49030;BME280;43337;52.070;4.508;2022-11-20T13:44:55;100789.09;;;1.67;99.55
49030;BME280;43337;52.070;4.508;2022-11-20T13:47:27;100784.72;;;1.69;99.06
49030;BME280;43337;52.070;4.508;2022-11-20T13:49:54;100777.00;;;1.66;98.96
49030;BME280;43337;52.070;4.508;2022-11-20T13:55:37;100777.81;;;1.68;100.00
49030;BME280;43337;52.070;4.508;2022-11-20T14:00:48;100773.50;;;1.73;99.81
49030;BME280;43337;52.070;4.508;2022-11-20T14:03:19;100757.09;;;1.66;99.68
49030;BME280;43337;52.070;4.508;2022-11-20T14:05:57;100749.25;;;1.73;100.00
49030;BME280;43337;52.070;4.508;2022-11-20T14:08:42;100743.16;;;1.75;100.00
49030;BME280;43337;52.070;4.508;2022-11-20T14:13:51;100711.16;;;1.78;100.00
49030;BME280;43337;52.070;4.508;2022-11-20T14:16:20;100697.34;;;1.73;100.00